createdAt,value
2019-04-30T00:00:58.628Z,97.30
2019-04-30T00:03:35.099Z,97.30
2019-04-30T00:06:07.493Z,97.40
2019-04-30T00:08:39.232Z,97.50
2019-04-30T00:11:10.778Z,97.50
2019-04-30T00:13:43.469Z,97.60
2019-04-30T00:16:18.958Z,97.50
2019-04-30T00:18:59.848Z,97.70
2019-04-30T00:21:26.233Z,97.80
2019-04-30T00:24:00.728Z,97.80
2019-04-30T00:26:31.213Z,97.90
2019-04-30T00:29:02.117Z,98.00
2019-04-30T00:31:34.837Z,98.30
2019-04-30T00:34:05.099Z,98.50
2019-04-30T00:36:37.507Z,98.60
2019-04-30T00:39:13.344Z,98.50
2019-04-30T00:41:45.897Z,98.60
2019-04-30T00:44:15.194Z,98.70
2019-04-30T00:46:48.067Z,98.80
2019-04-30T00:49:22.867Z,98.90
2019-04-30T00:51:56.682Z,98.90
2019-04-30T00:54:22.505Z,99.00
2019-04-30T00:56:57.512Z,99.10
2019-04-30T00:59:26.922Z,99.20
2019-04-30T01:02:19.924Z,99.30
2019-04-30T01:04:51.648Z,99.50
2019-04-30T01:07:22.365Z,99.70
2019-04-30T01:09:52.273Z,99.70
2019-04-30T01:12:25.288Z,99.80
2019-04-30T01:14:55.837Z,99.80
2019-04-30T01:17:26.567Z,99.80
2019-04-30T01:19:56.409Z,99.90
2019-04-30T01:22:31.112Z,99.90
2019-04-30T01:25:02.839Z,99.80
2019-04-30T01:27:31.330Z,99.90
2019-04-30T01:30:03.110Z,99.90
2019-04-30T01:32:34.455Z,99.90
2019-04-30T01:35:06.276Z,99.90
2019-04-30T01:37:36.081Z,99.90
2019-04-30T01:40:13.577Z,99.90
2019-04-30T01:42:43.011Z,99.90
2019-04-30T01:45:10.406Z,99.90
2019-04-30T01:47:40.285Z,99.90
2019-04-30T01:50:10.156Z,99.90
2019-04-30T01:52:55.782Z,99.90
2019-04-30T01:55:29.375Z,99.90
2019-04-30T01:58:01.853Z,99.90
2019-04-30T02:00:39.166Z,99.90
2019-04-30T02:03:11.258Z,99.90
2019-04-30T02:05:41.088Z,99.90
2019-04-30T02:08:11.979Z,99.90
2019-04-30T02:10:43.331Z,99.90
2019-04-30T02:13:13.194Z,99.90
2019-04-30T02:15:43.970Z,99.90
2019-04-30T02:18:14.042Z,99.90
2019-04-30T02:20:43.854Z,99.90
2019-04-30T02:23:13.679Z,99.90
2019-04-30T02:25:45.776Z,99.90
2019-04-30T02:28:15.691Z,99.90
2019-04-30T02:30:46.535Z,99.90
2019-04-30T02:33:19.526Z,99.90
2019-04-30T02:35:55.041Z,99.90
2019-04-30T02:38:32.548Z,99.90
2019-04-30T02:41:03.334Z,99.90
2019-04-30T02:43:36.514Z,99.90
2019-04-30T02:46:06.683Z,99.90
2019-04-30T02:48:39.655Z,99.90
2019-04-30T02:51:14.055Z,99.90
2019-04-30T02:54:23.998Z,99.90
2019-04-30T02:56:54.381Z,99.90
2019-04-30T02:59:24.192Z,99.90
2019-04-30T03:01:54.003Z,99.90
2019-04-30T03:04:23.900Z,99.90
2019-04-30T03:06:53.702Z,99.90
2019-04-30T03:09:24.789Z,99.90
2019-04-30T03:11:54.593Z,99.90
2019-04-30T03:14:25.020Z,99.90
2019-04-30T03:16:56.418Z,99.90
2019-04-30T03:19:30.586Z,99.90
2019-04-30T03:22:10.409Z,99.90
2019-04-30T03:24:42.818Z,99.90
2019-04-30T03:27:14.434Z,99.90
2019-04-30T03:29:45.702Z,99.90
2019-04-30T03:32:22.288Z,99.90
2019-04-30T03:34:51.815Z,99.90
2019-04-30T03:37:21.282Z,99.90
2019-04-30T03:39:51.093Z,99.90
2019-04-30T03:42:20.902Z,99.90
2019-04-30T03:44:54.441Z,99.90
2019-04-30T03:47:24.216Z,99.90
2019-04-30T03:49:56.412Z,99.90
2019-04-30T03:52:29.221Z,99.90
2019-04-30T03:55:02.459Z,99.90
2019-04-30T03:57:30.998Z,99.90
2019-04-30T04:00:01.691Z,99.90
2019-04-30T04:02:35.605Z,99.90
2019-04-30T04:05:14.289Z,99.90
2019-04-30T04:07:53.122Z,99.90
2019-04-30T04:10:29.755Z,99.90
2019-04-30T04:13:00.652Z,99.90
2019-04-30T04:15:31.452Z,99.90
2019-04-30T04:18:01.796Z,99.90
2019-04-30T04:20:31.587Z,99.90
2019-04-30T04:23:02.730Z,99.90
2019-04-30T04:25:32.537Z,99.90
2019-04-30T04:28:04.272Z,99.90
2019-04-30T04:30:36.569Z,99.90
2019-04-30T04:33:10.079Z,99.90
2019-04-30T04:35:40.543Z,99.90
2019-04-30T04:38:12.779Z,99.90
2019-04-30T04:40:45.559Z,99.90
2019-04-30T04:43:15.357Z,99.90
2019-04-30T04:45:49.459Z,99.90
2019-04-30T04:48:19.754Z,99.80
2019-04-30T04:50:50.536Z,99.80
2019-04-30T04:53:20.428Z,99.40
2019-04-30T04:55:54.961Z,99.20
2019-04-30T04:58:31.128Z,98.90
2019-04-30T05:01:01.373Z,98.70
2019-04-30T05:03:39.864Z,98.50
2019-04-30T05:06:11.959Z,98.30
2019-04-30T05:08:43.419Z,98.10
2019-04-30T05:11:13.353Z,97.80
2019-04-30T05:13:44.139Z,97.60
2019-04-30T05:16:14.011Z,97.40
2019-04-30T05:18:43.851Z,97.20
2019-04-30T05:21:14.645Z,96.90
2019-04-30T05:23:45.743Z,96.60
2019-04-30T05:26:18.937Z,96.40
2019-04-30T05:28:52.511Z,96.30
2019-04-30T05:31:21.133Z,96.10
2019-04-30T05:33:51.043Z,95.80
2019-04-30T05:36:20.831Z,95.70
2019-04-30T05:38:51.875Z,95.50
2019-04-30T05:41:22.845Z,95.30
2019-04-30T05:43:53.763Z,95.10
2019-04-30T05:46:23.638Z,95.00
2019-04-30T05:48:53.997Z,94.40
2019-04-30T05:51:23.813Z,94.10
2019-04-30T05:53:53.701Z,93.70
2019-04-30T05:56:23.527Z,93.40
2019-04-30T05:58:53.670Z,93.10
2019-04-30T06:01:24.341Z,93.00
2019-04-30T06:03:54.319Z,92.90
2019-04-30T06:06:24.604Z,92.80
2019-04-30T06:09:04.674Z,92.40
2019-04-30T06:11:40.871Z,91.90
2019-04-30T06:14:28.633Z,91.50
2019-04-30T06:17:15.262Z,90.90
2019-04-30T06:19:45.120Z,90.50
2019-04-30T06:22:16.337Z,90.50
2019-04-30T06:24:46.166Z,90.20
2019-04-30T06:27:16.191Z,89.90
2019-04-30T06:29:46.311Z,89.70
2019-04-30T06:32:16.128Z,88.10
2019-04-30T06:34:46.172Z,87.40
2019-04-30T06:37:16.061Z,86.50
2019-04-30T06:39:46.000Z,86.00
2019-04-30T06:42:15.874Z,85.00
2019-04-30T06:44:45.820Z,84.20
2019-04-30T06:47:20.063Z,83.40
2019-04-30T06:49:50.571Z,81.90
2019-04-30T06:52:23.553Z,81.00
2019-04-30T06:54:52.666Z,78.20
2019-04-30T06:57:23.514Z,73.70
2019-04-30T06:59:53.682Z,69.40
2019-04-30T07:02:23.528Z,65.50
2019-04-30T07:04:53.338Z,61.40
2019-04-30T07:07:30.786Z,58.90
2019-04-30T07:10:01.179Z,56.90
2019-04-30T07:12:34.166Z,55.60
2019-04-30T07:15:08.603Z,54.00
2019-04-30T07:17:40.570Z,52.30
2019-04-30T07:20:10.429Z,51.80
2019-04-30T07:22:50.452Z,51.10
2019-04-30T07:25:12.696Z,50.40
2019-04-30T07:27:45.920Z,49.50
2019-04-30T07:30:15.835Z,48.50
2019-04-30T07:32:46.289Z,47.30
2019-04-30T07:35:16.098Z,47.00
2019-04-30T07:37:45.938Z,46.40
2019-04-30T07:40:19.007Z,45.00
2019-04-30T07:42:50.618Z,44.50
2019-04-30T07:45:25.186Z,45.70
2019-04-30T07:47:51.911Z,44.80
2019-04-30T07:50:22.553Z,44.00
2019-04-30T07:53:02.642Z,43.40
2019-04-30T07:55:25.106Z,42.80
2019-04-30T07:57:54.903Z,43.20
2019-04-30T08:00:24.711Z,43.40
2019-04-30T08:02:56.099Z,42.50
2019-04-30T08:05:29.871Z,41.90
2019-04-30T08:08:16.655Z,41.80
2019-04-30T08:10:33.769Z,41.50
2019-04-30T08:13:10.047Z,42.70
2019-04-30T08:15:36.628Z,41.50
2019-04-30T08:18:08.609Z,41.50
2019-04-30T08:20:39.301Z,41.70
2019-04-30T08:23:20.175Z,41.90
2019-04-30T08:25:40.922Z,42.30
2019-04-30T08:28:12.547Z,42.10
2019-04-30T08:30:43.278Z,42.50
2019-04-30T08:33:14.670Z,42.30
2019-04-30T08:35:50.002Z,42.70
2019-04-30T08:38:23.563Z,43.00
2019-04-30T08:40:58.124Z,42.80
2019-04-30T08:43:25.185Z,42.60
2019-04-30T08:45:55.109Z,43.10
2019-04-30T08:48:43.866Z,43.20
2019-04-30T08:51:01.331Z,43.60
2019-04-30T08:53:33.771Z,43.50
2019-04-30T08:56:02.634Z,43.50
2019-04-30T08:58:33.784Z,43.40
2019-04-30T09:01:08.833Z,43.30
2019-04-30T09:03:39.312Z,43.80
2019-04-30T09:06:10.744Z,43.60
2019-04-30T09:08:40.631Z,43.50
2019-04-30T09:11:22.574Z,43.40
2019-04-30T09:13:48.804Z,43.00
2019-04-30T09:16:22.169Z,42.20
2019-04-30T09:18:53.566Z,42.10
2019-04-30T09:21:23.674Z,41.70
2019-04-30T09:23:55.920Z,41.40
2019-04-30T09:26:29.046Z,40.70
2019-04-30T09:29:02.747Z,40.50
2019-04-30T09:31:32.561Z,40.70
2019-04-30T09:34:14.272Z,40.80
2019-04-30T09:36:34.331Z,41.30
2019-04-30T09:39:05.621Z,41.10
2019-04-30T09:41:36.760Z,41.20
2019-04-30T09:44:07.718Z,40.90
2019-04-30T09:46:39.009Z,40.60
2019-04-30T09:49:09.647Z,40.60
2019-04-30T09:51:40.065Z,39.60
2019-04-30T09:54:12.757Z,39.40
2019-04-30T09:56:42.294Z,39.10
2019-04-30T09:59:12.721Z,38.90
2019-04-30T10:01:42.535Z,38.30
2019-04-30T10:04:14.205Z,37.90
2019-04-30T10:06:44.273Z,37.00
2019-04-30T10:09:14.813Z,36.80
2019-04-30T10:12:00.999Z,37.50
2019-04-30T10:14:32.585Z,37.40
2019-04-30T10:17:18.877Z,37.20
2019-04-30T10:19:49.277Z,37.00
2019-04-30T10:22:19.108Z,37.40
2019-04-30T10:24:49.518Z,35.80
2019-04-30T10:27:19.512Z,34.80
2019-04-30T10:29:49.986Z,35.00
2019-04-30T10:32:19.794Z,35.00
2019-04-30T10:34:52.131Z,34.40
2019-04-30T10:37:23.417Z,34.80
2019-04-30T10:39:53.375Z,35.00
2019-04-30T10:42:24.182Z,34.30
2019-04-30T10:44:54.115Z,33.40
2019-04-30T10:47:24.947Z,33.50
2019-04-30T10:49:54.774Z,32.70
2019-04-30T10:52:24.591Z,33.10
2019-04-30T10:54:54.393Z,32.50
2019-04-30T10:57:24.368Z,30.60
2019-04-30T10:59:54.205Z,30.50
2019-04-30T11:02:24.042Z,30.70
2019-04-30T11:04:54.070Z,30.70
2019-04-30T11:07:23.886Z,30.70
2019-04-30T11:09:54.114Z,29.90
2019-04-30T11:12:23.909Z,30.20
2019-04-30T11:14:55.219Z,30.00
2019-04-30T11:17:26.742Z,29.40
2019-04-30T11:19:58.979Z,28.90
2019-04-30T11:22:31.309Z,28.90
2019-04-30T11:25:03.018Z,29.20
2019-04-30T11:27:34.877Z,28.80
2019-04-30T11:30:18.483Z,28.30
2019-04-30T11:32:40.087Z,28.50
2019-04-30T11:35:10.080Z,28.40
2019-04-30T11:37:40.962Z,28.50
2019-04-30T11:40:17.083Z,28.80
2019-04-30T11:42:46.532Z,28.30
2019-04-30T11:45:19.501Z,27.30
2019-04-30T11:47:53.617Z,27.10
2019-04-30T11:50:22.363Z,27.10
2019-04-30T11:52:52.289Z,26.50
2019-04-30T11:55:22.324Z,26.20
2019-04-30T11:57:52.142Z,26.30
2019-04-30T12:00:25.869Z,26.20
2019-04-30T12:02:55.706Z,25.90
2019-04-30T12:05:25.556Z,25.70
2019-04-30T12:08:00.114Z,25.70
2019-04-30T12:10:41.445Z,25.50
2019-04-30T12:13:26.007Z,25.80
2019-04-30T12:15:56.387Z,25.80
2019-04-30T12:18:26.289Z,25.60
2019-04-30T12:20:57.678Z,25.20
2019-04-30T12:23:27.739Z,25.20
2019-04-30T12:26:00.994Z,25.10
2019-04-30T12:28:31.340Z,25.20
2019-04-30T12:31:02.428Z,25.40
2019-04-30T12:33:32.376Z,25.30
2019-04-30T12:36:06.299Z,25.40
2019-04-30T12:38:36.300Z,25.30
2019-04-30T12:41:06.860Z,25.50
2019-04-30T12:43:36.719Z,26.00
2019-04-30T12:46:08.953Z,26.00
2019-04-30T12:48:43.385Z,26.70
2019-04-30T12:51:14.793Z,27.30
2019-04-30T12:53:52.161Z,27.10
2019-04-30T12:56:29.307Z,26.70
2019-04-30T12:59:05.278Z,26.50
2019-04-30T13:01:36.858Z,26.00
2019-04-30T13:04:06.859Z,25.80
2019-04-30T13:06:37.046Z,25.60
2019-04-30T13:09:10.957Z,25.80
2019-04-30T13:11:41.316Z,25.20
2019-04-30T13:14:12.174Z,24.90
2019-04-30T13:16:42.245Z,24.70
2019-04-30T13:19:12.083Z,24.40
2019-04-30T13:21:41.915Z,24.50
2019-04-30T13:24:11.796Z,24.70
2019-04-30T13:26:41.633Z,24.70
2019-04-30T13:29:15.535Z,24.60
2019-04-30T13:31:45.826Z,24.80
2019-04-30T13:34:33.682Z,25.00
2019-04-30T13:37:03.540Z,25.20
2019-04-30T13:39:49.424Z,25.30
2019-04-30T13:42:20.433Z,25.60
2019-04-30T13:44:49.465Z,25.60
2019-04-30T13:47:19.326Z,25.60
2019-04-30T13:49:49.705Z,25.60
2019-04-30T13:52:20.531Z,25.50
2019-04-30T13:54:56.683Z,25.30
2019-04-30T13:57:28.254Z,25.10
2019-04-30T13:59:59.539Z,24.90
2019-04-30T14:02:31.961Z,24.80
2019-04-30T14:05:09.078Z,24.40
2019-04-30T14:07:41.338Z,24.40
2019-04-30T14:10:11.149Z,24.90
2019-04-30T14:12:42.591Z,24.80
2019-04-30T14:15:12.987Z,24.60
2019-04-30T14:17:44.087Z,24.40
2019-04-30T14:20:14.177Z,24.20
2019-04-30T14:22:44.014Z,24.20
2019-04-30T14:25:13.988Z,24.20
2019-04-30T14:27:51.772Z,23.90
2019-04-30T14:30:16.849Z,23.80
2019-04-30T14:32:50.593Z,23.80
2019-04-30T14:35:18.752Z,23.50
2019-04-30T14:37:49.614Z,23.40
2019-04-30T14:40:20.494Z,23.30
2019-04-30T14:42:54.655Z,22.80
2019-04-30T14:45:27.477Z,22.70
2019-04-30T14:48:08.000Z,22.60
2019-04-30T14:50:38.642Z,22.50
2019-04-30T14:53:22.300Z,22.30
2019-04-30T14:56:11.644Z,22.30
2019-04-30T14:58:51.286Z,21.90
2019-04-30T15:01:29.337Z,21.60
2019-04-30T15:04:07.982Z,21.20
2019-04-30T15:06:41.250Z,21.30
2019-04-30T15:09:14.100Z,21.30
2019-04-30T15:11:44.540Z,21.40
2019-04-30T15:14:14.411Z,21.30
2019-04-30T15:16:45.781Z,21.30
2019-04-30T15:19:16.788Z,21.20
2019-04-30T15:21:49.294Z,21.20
2019-04-30T15:24:24.975Z,21.20
2019-04-30T15:26:57.602Z,21.20
2019-04-30T15:29:26.312Z,21.40
2019-04-30T15:31:56.135Z,21.30
2019-04-30T15:34:29.336Z,21.30
2019-04-30T15:36:59.293Z,21.20
2019-04-30T15:39:30.961Z,21.10
2019-04-30T15:42:11.552Z,21.20
2019-04-30T15:44:45.730Z,21.60
2019-04-30T15:47:15.365Z,21.90
2019-04-30T15:49:45.288Z,21.80
2019-04-30T15:52:15.116Z,22.00
2019-04-30T15:54:44.898Z,23.00
2019-04-30T15:57:14.721Z,23.30
2019-04-30T15:59:44.547Z,23.20
2019-04-30T16:02:20.196Z,23.60
2019-04-30T16:04:57.304Z,23.50
2019-04-30T16:07:31.006Z,23.40
2019-04-30T16:10:05.025Z,24.00
2019-04-30T16:12:45.912Z,24.20
2019-04-30T16:15:18.493Z,24.10
2019-04-30T16:17:49.894Z,24.00
2019-04-30T16:20:19.782Z,24.00
2019-04-30T16:22:50.172Z,24.60
2019-04-30T16:25:20.004Z,24.40
2019-04-30T16:27:50.566Z,24.80
2019-04-30T16:30:23.928Z,25.60
2019-04-30T16:32:53.765Z,26.30
2019-04-30T16:35:25.063Z,27.20
2019-04-30T16:37:56.742Z,28.50
2019-04-30T16:40:28.852Z,30.00
2019-04-30T16:43:02.601Z,31.40
2019-04-30T16:45:33.732Z,32.90
2019-04-30T16:48:04.165Z,34.00
2019-04-30T16:50:35.227Z,34.80
2019-04-30T16:53:06.820Z,36.10
2019-04-30T16:55:37.619Z,36.50
2019-04-30T16:58:10.609Z,37.20
2019-04-30T17:00:40.913Z,38.10
2019-04-30T17:03:13.256Z,39.30
2019-04-30T17:05:46.328Z,40.10
2019-04-30T17:08:31.428Z,40.90
2019-04-30T17:11:11.783Z,42.10
2019-04-30T17:13:42.860Z,43.00
2019-04-30T17:16:14.235Z,44.10
2019-04-30T17:18:49.483Z,45.00
2019-04-30T17:21:19.799Z,45.70
2019-04-30T17:23:50.973Z,46.60
2019-04-30T17:26:23.597Z,47.70
2019-04-30T17:28:57.157Z,48.80
2019-04-30T17:31:29.776Z,50.10
2019-04-30T17:34:00.546Z,50.70
2019-04-30T17:36:30.516Z,51.40
2019-04-30T17:39:10.097Z,52.10
2019-04-30T17:41:41.985Z,53.60
2019-04-30T17:44:13.406Z,53.60
2019-04-30T17:46:46.122Z,54.50
2019-04-30T17:49:18.922Z,54.90
2019-04-30T17:51:55.815Z,55.80
2019-04-30T17:54:31.055Z,56.00
2019-04-30T17:57:03.431Z,56.70
2019-04-30T17:59:33.323Z,57.10
2019-04-30T18:02:05.313Z,57.70
2019-04-30T18:04:35.137Z,58.30
2019-04-30T18:07:05.163Z,59.10
2019-04-30T18:09:42.099Z,59.90
2019-04-30T18:12:14.159Z,60.40
2019-04-30T18:14:44.069Z,61.20
2019-04-30T18:17:19.059Z,62.30
2019-04-30T18:19:55.698Z,63.20
2019-04-30T18:22:43.407Z,64.20
2019-04-30T18:25:15.469Z,65.40
2019-04-30T18:27:59.605Z,66.40
2019-04-30T18:30:31.710Z,67.40
2019-04-30T18:33:01.559Z,68.30
2019-04-30T18:35:33.527Z,70.40
2019-04-30T18:38:03.396Z,70.90
2019-04-30T18:40:35.011Z,71.00
2019-04-30T18:43:07.198Z,71.50
2019-04-30T18:45:39.524Z,71.50
2019-04-30T18:48:12.352Z,72.00
2019-04-30T18:50:46.687Z,72.60
2019-04-30T18:53:23.855Z,73.10
2019-04-30T18:55:54.177Z,73.80
2019-04-30T18:58:36.515Z,74.30
2019-04-30T19:00:56.826Z,74.70
2019-04-30T19:03:26.679Z,74.90
2019-04-30T19:05:58.678Z,75.20
2019-04-30T19:08:39.476Z,76.00
2019-04-30T19:11:18.846Z,75.70
2019-04-30T19:13:51.172Z,74.50
2019-04-30T19:16:40.015Z,73.90
2019-04-30T19:19:19.620Z,73.00
2019-04-30T19:21:49.510Z,72.40
2019-04-30T19:24:20.854Z,71.80
2019-04-30T19:26:51.991Z,70.90
2019-04-30T19:29:23.298Z,70.20
2019-04-30T19:31:53.664Z,69.70
2019-04-30T19:34:23.484Z,69.40
2019-04-30T19:36:54.788Z,69.60
2019-04-30T19:39:26.156Z,69.00
2019-04-30T19:41:56.116Z,68.60
2019-04-30T19:44:26.240Z,68.20
2019-04-30T19:46:58.563Z,68.20
2019-04-30T19:49:28.732Z,67.60
2019-04-30T19:52:08.595Z,67.20
2019-04-30T19:54:39.572Z,66.50
2019-04-30T19:57:19.022Z,66.90
2019-04-30T19:59:51.217Z,67.80
2019-04-30T20:02:21.839Z,67.10
2019-04-30T20:04:52.446Z,67.70
2019-04-30T20:07:22.265Z,67.50
2019-04-30T20:10:00.604Z,67.20
2019-04-30T20:12:24.558Z,66.90
2019-04-30T20:14:54.825Z,66.30
2019-04-30T20:17:26.876Z,66.70
2019-04-30T20:20:00.412Z,66.50
2019-04-30T20:22:30.238Z,66.50
2019-04-30T20:25:01.566Z,65.80
2019-04-30T20:27:31.512Z,65.90
2019-04-30T20:30:13.519Z,65.50
2019-04-30T20:32:45.048Z,65.50
2019-04-30T20:35:26.108Z,65.80
2019-04-30T20:38:16.842Z,65.50
2019-04-30T20:40:59.672Z,66.50
2019-04-30T20:43:19.975Z,65.70
2019-04-30T20:45:51.670Z,65.90
2019-04-30T20:48:23.008Z,65.80
2019-04-30T20:50:55.011Z,66.10
2019-04-30T20:53:24.858Z,65.50
2019-04-30T20:55:55.563Z,65.60
2019-04-30T20:58:25.399Z,65.00
2019-04-30T21:01:03.978Z,64.80
2019-04-30T21:03:29.545Z,64.40
2019-04-30T21:06:00.970Z,65.10
2019-04-30T21:08:31.845Z,64.60
2019-04-30T21:11:02.291Z,65.00
2019-04-30T21:13:32.691Z,65.20
2019-04-30T21:16:02.664Z,65.30
2019-04-30T21:18:32.637Z,66.20
2019-04-30T21:21:02.481Z,67.00
2019-04-30T21:23:32.357Z,67.50
2019-04-30T21:26:03.721Z,67.70
2019-04-30T21:28:35.099Z,68.00
2019-04-30T21:31:23.817Z,68.30
2019-04-30T21:33:58.803Z,68.60
2019-04-30T21:36:29.314Z,68.30
2019-04-30T21:39:03.617Z,68.80
2019-04-30T21:41:42.219Z,69.50
2019-04-30T21:44:12.509Z,69.80
2019-04-30T21:46:42.385Z,69.30
2019-04-30T21:49:14.561Z,70.00
2019-04-30T21:51:46.325Z,70.00
2019-04-30T21:54:17.138Z,70.60
2019-04-30T21:56:48.663Z,70.90
2019-04-30T21:59:24.522Z,71.30
2019-04-30T22:01:51.410Z,71.70
2019-04-30T22:04:21.841Z,72.30
2019-04-30T22:06:51.653Z,73.00
2019-04-30T22:09:23.298Z,73.50
2019-04-30T22:11:53.301Z,73.90
2019-04-30T22:14:25.120Z,74.40
2019-04-30T22:16:55.073Z,74.70
2019-04-30T22:19:25.085Z,74.70
2019-04-30T22:21:54.926Z,75.00
2019-04-30T22:24:28.330Z,75.10
2019-04-30T22:27:01.886Z,75.20
2019-04-30T22:29:39.256Z,75.40
2019-04-30T22:32:03.189Z,75.90
2019-04-30T22:34:34.380Z,76.10
2019-04-30T22:37:04.218Z,76.20
2019-04-30T22:39:39.540Z,76.40
2019-04-30T22:42:29.919Z,76.50
2019-04-30T22:45:01.173Z,77.00
2019-04-30T22:47:32.470Z,77.00
2019-04-30T22:50:03.556Z,77.20
2019-04-30T22:52:33.451Z,77.70
2019-04-30T22:55:04.404Z,77.90
2019-04-30T22:57:34.214Z,78.20
2019-04-30T23:00:09.735Z,78.60
2019-04-30T23:02:42.694Z,79.40
2019-04-30T23:05:14.148Z,80.00
2019-04-30T23:07:43.940Z,79.80
2019-04-30T23:10:18.950Z,80.20
2019-04-30T23:12:49.294Z,80.80
2019-04-30T23:15:20.094Z,81.70
2019-04-30T23:17:52.328Z,82.60
2019-04-30T23:20:23.717Z,83.30
2019-04-30T23:22:54.176Z,84.10
2019-04-30T23:25:25.500Z,85.00
2019-04-30T23:27:58.409Z,86.10
2019-04-30T23:30:29.340Z,87.20
2019-04-30T23:32:59.159Z,88.30
2019-04-30T23:35:29.147Z,89.10
2019-04-30T23:37:58.916Z,90.10
2019-04-30T23:40:32.706Z,90.50
2019-04-30T23:43:03.152Z,90.90
2019-04-30T23:45:33.180Z,91.40
2019-04-30T23:48:05.689Z,91.70
2019-04-30T23:50:35.510Z,91.80
2019-04-30T23:53:05.326Z,92.10
2019-04-30T23:55:35.179Z,92.30
2019-04-30T23:58:07.000Z,92.80
